Tropical Cyclones
[Index]
Main Index Home Page Stock Weather Photos Extreme Storms Discussion Storm News and Storm Chasing Reports Tropical Cyclones / Hurricanes / Typhoons Weather Data and Links Wild Fires / Bushfires Weather Observation Techniques Weather Picture Catalogue Tornado Pictures and Reports Stock Video Footage and DVDs for sale
Season 2012-2013 Tropical Cyclone MITCHELL Track Map
Season 2012-2013 Summaries: [BoM-AU] [JTWC-AU] [JTWC-SIO] [JTWC-SPAC] [JTWC-SH]
<<- Previous TC | BoM 2012-2013 Season | Next TC ->>

click for intensity scale information  Lat/long Grid: Show Hide

 Date Labels: Show Hide

Bureau of Meteorology Tropical Cyclone Data

Name: MITCHELL
Number: 961 / 201213_04

26 Dec 2012 12:00 UTC to 31 Dec 2012 18:00 UTC

    date/time    lat    long    hPa   cat  kts
2012-12-26 12   13.4   116.2   1004         20          
2012-12-26 18   13.5   115.1   1004         20          
2012-12-27 00   13.5   114.0   1004         20          
2012-12-27 06   14.0   113.6   1003         20          
2012-12-27 12   14.4   113.2   1001         25          
2012-12-27 16   14.0   112.0   1002         25          
2012-12-27 18   14.8   112.9   1001         25          
2012-12-28 00   15.1   112.7   1001         25          
2012-12-28 06   15.4   112.5   1001         25          
2012-12-28 12   15.5   111.4   1000         30          
2012-12-28 18   16.3   111.1   1000         30          
2012-12-28 22   17.0   111.0                            
2012-12-29 00   17.2   110.9    997         35          
2012-12-29 06   18.0   110.8    991    1    45          
2012-12-29 11   18.8   110.6                            
2012-12-29 12   18.9   110.6    988    1    45          
2012-12-29 18   20.1   110.4    988    1    45          
2012-12-30 00   21.3   110.2    989    1    45          
2012-12-30 06   22.6   110.1    992    1    40          
2012-12-30 12   23.9   109.8    998         35          
2012-12-30 18   25.4   108.9   1004         25          
2012-12-31 00   26.8   108.1   1004         25          
2012-12-31 06   28.5   108.0   1004         25          
2012-12-31 09   29.3   108.2                            
2012-12-31 12   30.2   108.7   1004         25          
2012-12-31 18   30.9   110.0   1004         20          
Winds are 10-min average.

Tropical cyclone tracks developed by Michael Bath using data from the Bureau of Meteorology and Google Maps.


[Australian Severe Weather index] [Copyright Notice] [Email Contacts] [Search This Site] [Privacy Policy]
Document: tropical_cyclone_mitchell.htm Updated: 29 June 2017